sensor_id;sensor_type;location;lat;lon;timestamp;temperature;humidity
2611;DHT22;5612;51.134;17.058;2023-02-01T00:01:35;2.50;99.90
2611;DHT22;5612;51.134;17.058;2023-02-01T00:04:04;2.50;99.90
2611;DHT22;5612;51.134;17.058;2023-02-01T00:06:33;2.50;99.90
2611;DHT22;5612;51.134;17.058;2023-02-01T00:09:02;2.50;99.90
2611;DHT22;5612;51.134;17.058;2023-02-01T00:11:31;2.60;99.90
2611;DHT22;5612;51.134;17.058;2023-02-01T00:14:00;2.60;99.90
2611;DHT22;5612;51.134;17.058;2023-02-01T00:16:31;2.60;99.90
2611;DHT22;5612;51.134;17.058;2023-02-01T00:19:02;2.60;99.90
2611;DHT22;5612;51.134;17.058;2023-02-01T00:21:31;2.60;99.90
2611;DHT22;5612;51.134;17.058;2023-02-01T00:24:00;2.60;99.90
2611;DHT22;5612;51.134;17.058;2023-02-01T00:26:32;2.60;99.90
2611;DHT22;5612;51.134;17.058;2023-02-01T00:29:02;2.60;99.90
2611;DHT22;5612;51.134;17.058;2023-02-01T00:31:33;2.70;99.90
2611;DHT22;5612;51.134;17.058;2023-02-01T00:34:02;2.60;99.90
2611;DHT22;5612;51.134;17.058;2023-02-01T00:36:31;2.60;99.90
2611;DHT22;5612;51.134;17.058;2023-02-01T00:39:00;2.60;99.90
2611;DHT22;5612;51.134;17.058;2023-02-01T00:41:29;2.60;99.90
2611;DHT22;5612;51.134;17.058;2023-02-01T00:43:58;2.70;99.90
2611;DHT22;5612;51.134;17.058;2023-02-01T00:46:27;2.70;99.90
2611;DHT22;5612;51.134;17.058;2023-02-01T00:48:57;2.80;99.90
2611;DHT22;5612;51.134;17.058;2023-02-01T00:51:28;2.80;99.90
2611;DHT22;5612;51.134;17.058;2023-02-01T00:53:57;2.80;99.90
2611;DHT22;5612;51.134;17.058;2023-02-01T00:56:26;2.80;99.90
2611;DHT22;5612;51.134;17.058;2023-02-01T00:58:56;2.90;99.90
2611;DHT22;5612;51.134;17.058;2023-02-01T01:01:26;2.90;99.90
2611;DHT22;5612;51.134;17.058;2023-02-01T01:03:58;2.90;99.90
2611;DHT22;5612;51.134;17.058;2023-02-01T01:06:29;2.80;99.90
2611;DHT22;5612;51.134;17.058;2023-02-01T01:09:01;2.90;99.90
2611;DHT22;5612;51.134;17.058;2023-02-01T01:11:33;2.90;99.90
2611;DHT22;5612;51.134;17.058;2023-02-01T01:14:03;2.90;99.90
2611;DHT22;5612;51.134;17.058;2023-02-01T01:16:32;3.00;99.90
2611;DHT22;5612;51.134;17.058;2023-02-01T01:19:03;3.00;99.90
2611;DHT22;5612;51.134;17.058;2023-02-01T01:21:33;3.10;99.90
2611;DHT22;5612;51.134;17.058;2023-02-01T01:24:01;3.00;99.90
2611;DHT22;5612;51.134;17.058;2023-02-01T01:26:30;3.00;99.90
2611;DHT22;5612;51.134;17.058;2023-02-01T01:28:59;3.00;99.90
2611;DHT22;5612;51.134;17.058;2023-02-01T01:31:28;3.00;99.90
2611;DHT22;5612;51.134;17.058;2023-02-01T01:33:58;3.00;99.90
2611;DHT22;5612;51.134;17.058;2023-02-01T01:36:29;3.10;99.90
2611;DHT22;5612;51.134;17.058;2023-02-01T01:38:58;3.10;99.90
2611;DHT22;5612;51.134;17.058;2023-02-01T01:41:30;3.10;99.90
2611;DHT22;5612;51.134;17.058;2023-02-01T01:44:00;3.20;99.90
2611;DHT22;5612;51.134;17.058;2023-02-01T01:46:31;3.20;99.90
2611;DHT22;5612;51.134;17.058;2023-02-01T01:49:05;3.20;99.90
2611;DHT22;5612;51.134;17.058;2023-02-01T01:51:40;3.10;99.90
2611;DHT22;5612;51.134;17.058;2023-02-01T01:54:14;3.10;99.90
2611;DHT22;5612;51.134;17.058;2023-02-01T01:56:47;3.00;99.90
2611;DHT22;5612;51.134;17.058;2023-02-01T01:59:18;2.80;99.90
2611;DHT22;5612;51.134;17.058;2023-02-01T02:01:48;2.80;99.90
2611;DHT22;5612;51.134;17.058;2023-02-01T02:04:17;2.70;99.90
2611;DHT22;5612;51.134;17.058;2023-02-01T02:06:51;2.60;99.90
2611;DHT22;5612;51.134;17.058;2023-02-01T02:09:23;2.60;99.90
2611;DHT22;5612;51.134;17.058;2023-02-01T02:11:51;2.60;99.90
2611;DHT22;5612;51.134;17.058;2023-02-01T02:14:22;2.70;99.90
2611;DHT22;5612;51.134;17.058;2023-02-01T02:17:07;2.70;99.90
2611;DHT22;5612;51.134;17.058;2023-02-01T02:23:28;2.80;99.90
2611;DHT22;5612;51.134;17.058;2023-02-01T02:26:13;2.90;99.90
2611;DHT22;5612;51.134;17.058;2023-02-01T02:35:00;3.10;99.90
2611;DHT22;5612;51.134;17.058;2023-02-01T02:37:38;3.20;99.90
2611;DHT22;5612;51.134;17.058;2023-02-01T02:40:14;3.20;99.90
2611;DHT22;5612;51.134;17.058;2023-02-01T02:42:50;3.20;99.90
2611;DHT22;5612;51.134;17.058;2023-02-01T02:45:42;3.20;99.90
2611;DHT22;5612;51.134;17.058;2023-02-01T02:48:35;3.20;99.90
2611;DHT22;5612;51.134;17.058;2023-02-01T02:51:13;3.20;99.90
2611;DHT22;5612;51.134;17.058;2023-02-01T02:54:04;3.30;99.90
2611;DHT22;5612;51.134;17.058;2023-02-01T02:56:53;3.30;99.90
2611;DHT22;5612;51.134;17.058;2023-02-01T02:59:41;3.40;99.90
2611;DHT22;5612;51.134;17.058;2023-02-01T03:02:29;3.50;99.90
2611;DHT22;5612;51.134;17.058;2023-02-01T03:05:15;3.50;99.90
2611;DHT22;5612;51.134;17.058;2023-02-01T03:08:01;3.50;99.90
2611;DHT22;5612;51.134;17.058;2023-02-01T03:10:41;3.50;99.90
2611;DHT22;5612;51.134;17.058;2023-02-01T03:13:15;3.50;99.90
2611;DHT22;5612;51.134;17.058;2023-02-01T03:15:58;3.50;99.90
2611;DHT22;5612;51.134;17.058;2023-02-01T03:18:33;3.40;99.90
2611;DHT22;5612;51.134;17.058;2023-02-01T03:21:09;3.40;99.90
2611;DHT22;5612;51.134;17.058;2023-02-01T03:23:41;3.40;99.90
2611;DHT22;5612;51.134;17.058;2023-02-01T03:26:13;3.50;99.90
2611;DHT22;5612;51.134;17.058;2023-02-01T03:28:48;3.50;99.90
2611;DHT22;5612;51.134;17.058;2023-02-01T03:31:18;3.50;96.90
2611;DHT22;5612;51.134;17.058;2023-02-01T03:33:47;3.40;99.90
2611;DHT22;5612;51.134;17.058;2023-02-01T03:36:20;3.30;99.90
2611;DHT22;5612;51.134;17.058;2023-02-01T03:38:58;3.30;99.90
2611;DHT22;5612;51.134;17.058;2023-02-01T03:41:34;3.30;99.90
2611;DHT22;5612;51.134;17.058;2023-02-01T03:44:09;3.40;99.90
2611;DHT22;5612;51.134;17.058;2023-02-01T03:46:42;3.40;99.90
2611;DHT22;5612;51.134;17.058;2023-02-01T03:49:16;3.30;99.90
2611;DHT22;5612;51.134;17.058;2023-02-01T03:51:47;3.30;98.50
2611;DHT22;5612;51.134;17.058;2023-02-01T03:54:19;3.20;99.90
2611;DHT22;5612;51.134;17.058;2023-02-01T03:56:48;3.30;99.90
2611;DHT22;5612;51.134;17.058;2023-02-01T03:59:18;3.20;99.90
2611;DHT22;5612;51.134;17.058;2023-02-01T04:01:47;3.20;99.90
2611;DHT22;5612;51.134;17.058;2023-02-01T04:04:17;3.30;99.90
2611;DHT22;5612;51.134;17.058;2023-02-01T04:06:48;3.30;91.20
2611;DHT22;5612;51.134;17.058;2023-02-01T04:09:19;3.30;91.40
2611;DHT22;5612;51.134;17.058;2023-02-01T04:11:47;3.30;90.40
2611;DHT22;5612;51.134;17.058;2023-02-01T04:14:16;3.30;84.70
2611;DHT22;5612;51.134;17.058;2023-02-01T04:16:45;3.30;72.20
2611;DHT22;5612;51.134;17.058;2023-02-01T04:19:14;3.30;90.90
2611;DHT22;5612;51.134;17.058;2023-02-01T04:21:43;3.30;74.10
2611;DHT22;5612;51.134;17.058;2023-02-01T04:24:12;3.30;80.00
2611;DHT22;5612;51.134;17.058;2023-02-01T04:26:42;3.30;58.20
2611;DHT22;5612;51.134;17.058;2023-02-01T04:29:11;3.30;82.50
2611;DHT22;5612;51.134;17.058;2023-02-01T04:31:40;3.20;73.20
2611;DHT22;5612;51.134;17.058;2023-02-01T04:34:09;3.20;77.90
2611;DHT22;5612;51.134;17.058;2023-02-01T04:36:38;3.30;58.10
2611;DHT22;5612;51.134;17.058;2023-02-01T04:39:08;3.30;50.90
2611;DHT22;5612;51.134;17.058;2023-02-01T04:41:37;3.30;52.90
2611;DHT22;5612;51.134;17.058;2023-02-01T04:44:10;3.40;40.50
2611;DHT22;5612;51.134;17.058;2023-02-01T04:46:41;3.40;39.90
2611;DHT22;5612;51.134;17.058;2023-02-01T04:49:10;3.50;25.80
2611;DHT22;5612;51.134;17.058;2023-02-01T04:51:40;3.50;34.20
2611;DHT22;5612;51.134;17.058;2023-02-01T04:54:09;3.60;26.30
2611;DHT22;5612;51.134;17.058;2023-02-01T04:56:39;3.60;20.90
2611;DHT22;5612;51.134;17.058;2023-02-01T04:59:10;3.70;2.20
2611;DHT22;5612;51.134;17.058;2023-02-01T05:01:39;3.70;13.10
2611;DHT22;5612;51.134;17.058;2023-02-01T05:04:08;3.80;1.00
2611;DHT22;5612;51.134;17.058;2023-02-01T05:06:37;3.80;1.00
2611;DHT22;5612;51.134;17.058;2023-02-01T05:09:06;3.80;3.40
2611;DHT22;5612;51.134;17.058;2023-02-01T05:11:34;3.90;1.00
2611;DHT22;5612;51.134;17.058;2023-02-01T05:14:22;3.80;7.10
2611;DHT22;5612;51.134;17.058;2023-02-01T05:16:51;3.80;1.00
2611;DHT22;5612;51.134;17.058;2023-02-01T05:19:19;3.80;1.00
2611;DHT22;5612;51.134;17.058;2023-02-01T05:21:48;3.90;1.00
2611;DHT22;5612;51.134;17.058;2023-02-01T05:24:17;4.00;1.00
2611;DHT22;5612;51.134;17.058;2023-02-01T05:26:48;4.00;1.00
2611;DHT22;5612;51.134;17.058;2023-02-01T05:29:18;4.00;1.00
2611;DHT22;5612;51.134;17.058;2023-02-01T05:31:48;4.10;1.00
2611;DHT22;5612;51.134;17.058;2023-02-01T05:34:17;4.10;1.00
2611;DHT22;5612;51.134;17.058;2023-02-01T05:36:46;4.10;1.00
2611;DHT22;5612;51.134;17.058;2023-02-01T05:39:15;4.00;1.00
2611;DHT22;5612;51.134;17.058;2023-02-01T05:41:44;4.00;1.00
2611;DHT22;5612;51.134;17.058;2023-02-01T05:44:13;3.90;1.00
2611;DHT22;5612;51.134;17.058;2023-02-01T05:46:42;3.80;1.00
2611;DHT22;5612;51.134;17.058;2023-02-01T05:49:12;3.80;1.00
2611;DHT22;5612;51.134;17.058;2023-02-01T05:51:41;3.80;1.00
2611;DHT22;5612;51.134;17.058;2023-02-01T05:54:10;3.80;1.00
2611;DHT22;5612;51.134;17.058;2023-02-01T05:56:38;3.80;1.00
2611;DHT22;5612;51.134;17.058;2023-02-01T05:59:09;3.80;1.00
2611;DHT22;5612;51.134;17.058;2023-02-01T06:01:37;3.80;1.00
2611;DHT22;5612;51.134;17.058;2023-02-01T06:04:06;3.90;1.00
2611;DHT22;5612;51.134;17.058;2023-02-01T06:06:37;3.90;1.00
2611;DHT22;5612;51.134;17.058;2023-02-01T06:09:05;4.00;1.00
2611;DHT22;5612;51.134;17.058;2023-02-01T06:11:34;4.00;1.00
2611;DHT22;5612;51.134;17.058;2023-02-01T06:14:03;4.00;1.00
2611;DHT22;5612;51.134;17.058;2023-02-01T06:16:31;4.00;1.00
2611;DHT22;5612;51.134;17.058;2023-02-01T06:19:00;4.10;1.00
2611;DHT22;5612;51.134;17.058;2023-02-01T06:21:29;4.10;1.00
2611;DHT22;5612;51.134;17.058;2023-02-01T06:23:59;4.00;1.00
2611;DHT22;5612;51.134;17.058;2023-02-01T06:26:28;4.10;1.00
2611;DHT22;5612;51.134;17.058;2023-02-01T06:28:57;4.20;1.00
2611;DHT22;5612;51.134;17.058;2023-02-01T06:31:25;4.20;1.00
2611;DHT22;5612;51.134;17.058;2023-02-01T06:33:55;4.20;1.00
2611;DHT22;5612;51.134;17.058;2023-02-01T06:36:25;4.30;1.00
2611;DHT22;5612;51.134;17.058;2023-02-01T06:38:56;4.30;1.00
2611;DHT22;5612;51.134;17.058;2023-02-01T06:41:28;4.20;1.00
2611;DHT22;5612;51.134;17.058;2023-02-01T06:43:56;4.20;1.00
2611;DHT22;5612;51.134;17.058;2023-02-01T06:46:25;4.30;1.00
2611;DHT22;5612;51.134;17.058;2023-02-01T06:48:54;4.30;1.00
2611;DHT22;5612;51.134;17.058;2023-02-01T06:51:24;4.30;1.00
2611;DHT22;5612;51.134;17.058;2023-02-01T06:53:54;4.30;1.00
2611;DHT22;5612;51.134;17.058;2023-02-01T06:56:23;4.40;1.00
2611;DHT22;5612;51.134;17.058;2023-02-01T06:58:53;4.40;1.00
2611;DHT22;5612;51.134;17.058;2023-02-01T07:01:22;4.40;1.00
2611;DHT22;5612;51.134;17.058;2023-02-01T07:03:51;4.40;1.00
2611;DHT22;5612;51.134;17.058;2023-02-01T07:06:20;4.40;1.00
2611;DHT22;5612;51.134;17.058;2023-02-01T07:08:49;4.40;1.00
2611;DHT22;5612;51.134;17.058;2023-02-01T07:11:18;4.40;1.00
2611;DHT22;5612;51.134;17.058;2023-02-01T07:13:48;4.50;1.00
2611;DHT22;5612;51.134;17.058;2023-02-01T07:16:19;4.40;1.00
2611;DHT22;5612;51.134;17.058;2023-02-01T07:18:50;4.40;1.00
2611;DHT22;5612;51.134;17.058;2023-02-01T07:21:20;4.40;1.00
2611;DHT22;5612;51.134;17.058;2023-02-01T07:23:49;4.40;1.00
2611;DHT22;5612;51.134;17.058;2023-02-01T07:26:18;4.40;1.00
2611;DHT22;5612;51.134;17.058;2023-02-01T07:28:48;4.40;1.00
2611;DHT22;5612;51.134;17.058;2023-02-01T07:31:19;4.40;1.00
2611;DHT22;5612;51.134;17.058;2023-02-01T07:33:49;4.40;1.00
2611;DHT22;5612;51.134;17.058;2023-02-01T07:36:20;4.50;1.00
2611;DHT22;5612;51.134;17.058;2023-02-01T07:38:49;4.40;1.00
2611;DHT22;5612;51.134;17.058;2023-02-01T07:41:22;4.40;1.00
2611;DHT22;5612;51.134;17.058;2023-02-01T07:43:52;4.50;1.00
2611;DHT22;5612;51.134;17.058;2023-02-01T07:46:23;4.50;1.00
2611;DHT22;5612;51.134;17.058;2023-02-01T07:48:52;4.50;1.00
2611;DHT22;5612;51.134;17.058;2023-02-01T07:51:21;4.50;1.00
2611;DHT22;5612;51.134;17.058;2023-02-01T07:53:50;4.50;1.00
2611;DHT22;5612;51.134;17.058;2023-02-01T07:56:24;4.60;1.00
2611;DHT22;5612;51.134;17.058;2023-02-01T07:58:54;4.60;1.00
2611;DHT22;5612;51.134;17.058;2023-02-01T08:01:29;4.70;1.00
2611;DHT22;5612;51.134;17.058;2023-02-01T08:03:58;4.70;1.00
2611;DHT22;5612;51.134;17.058;2023-02-01T08:06:28;4.70;1.00
2611;DHT22;5612;51.134;17.058;2023-02-01T08:08:59;4.60;1.00
2611;DHT22;5612;51.134;17.058;2023-02-01T08:11:28;4.70;1.00
2611;DHT22;5612;51.134;17.058;2023-02-01T08:13:58;4.70;1.00
2611;DHT22;5612;51.134;17.058;2023-02-01T08:16:29;4.80;1.00
2611;DHT22;5612;51.134;17.058;2023-02-01T08:18:58;4.80;1.00
2611;DHT22;5612;51.134;17.058;2023-02-01T08:21:28;4.90;1.00
2611;DHT22;5612;51.134;17.058;2023-02-01T08:24:05;4.80;1.00
2611;DHT22;5612;51.134;17.058;2023-02-01T08:26:34;4.90;1.00
2611;DHT22;5612;51.134;17.058;2023-02-01T08:29:04;4.90;1.00
2611;DHT22;5612;51.134;17.058;2023-02-01T08:31:35;5.00;1.00
2611;DHT22;5612;51.134;17.058;2023-02-01T08:34:08;5.10;1.00
2611;DHT22;5612;51.134;17.058;2023-02-01T08:36:37;5.20;1.00
2611;DHT22;5612;51.134;17.058;2023-02-01T08:39:06;5.20;1.00
2611;DHT22;5612;51.134;17.058;2023-02-01T08:41:36;5.20;1.00
2611;DHT22;5612;51.134;17.058;2023-02-01T08:44:05;5.20;1.00
2611;DHT22;5612;51.134;17.058;2023-02-01T08:46:36;5.20;1.00
2611;DHT22;5612;51.134;17.058;2023-02-01T08:49:05;5.10;1.00
2611;DHT22;5612;51.134;17.058;2023-02-01T08:51:34;5.10;1.00
2611;DHT22;5612;51.134;17.058;2023-02-01T08:54:07;5.00;1.00
2611;DHT22;5612;51.134;17.058;2023-02-01T08:56:52;5.00;1.00
2611;DHT22;5612;51.134;17.058;2023-02-01T08:59:35;5.00;1.00
2611;DHT22;5612;51.134;17.058;2023-02-01T09:02:09;4.90;1.00
2611;DHT22;5612;51.134;17.058;2023-02-01T09:04:52;4.90;43.40
2611;DHT22;5612;51.134;17.058;2023-02-01T09:07:32;4.90;33.40
2611;DHT22;5612;51.134;17.058;2023-02-01T09:10:03;4.80;32.10
2611;DHT22;5612;51.134;17.058;2023-02-01T09:12:33;4.70;47.00
2611;DHT22;5612;51.134;17.058;2023-02-01T09:15:03;4.60;98.40
2611;DHT22;5612;51.134;17.058;2023-02-01T09:17:36;4.50;99.90
2611;DHT22;5612;51.134;17.058;2023-02-01T09:20:05;4.50;99.90
2611;DHT22;5612;51.134;17.058;2023-02-01T09:22:34;4.60;81.80
2611;DHT22;5612;51.134;17.058;2023-02-01T09:25:04;4.60;63.50
2611;DHT22;5612;51.134;17.058;2023-02-01T09:27:33;4.70;60.40
2611;DHT22;5612;51.134;17.058;2023-02-01T09:30:09;4.90;46.20
2611;DHT22;5612;51.134;17.058;2023-02-01T09:32:52;5.00;40.20
2611;DHT22;5612;51.134;17.058;2023-02-01T09:35:21;5.20;1.00
2611;DHT22;5612;51.134;17.058;2023-02-01T09:37:50;5.40;1.00
2611;DHT22;5612;51.134;17.058;2023-02-01T09:40:22;5.50;1.00
2611;DHT22;5612;51.134;17.058;2023-02-01T09:43:11;5.60;1.00
2611;DHT22;5612;51.134;17.058;2023-02-01T09:45:48;5.80;1.00
2611;DHT22;5612;51.134;17.058;2023-02-01T09:48:27;5.80;1.00
2611;DHT22;5612;51.134;17.058;2023-02-01T09:51:00;5.90;1.00
2611;DHT22;5612;51.134;17.058;2023-02-01T09:53:34;5.90;1.00
2611;DHT22;5612;51.134;17.058;2023-02-01T09:56:06;5.80;1.00
2611;DHT22;5612;51.134;17.058;2023-02-01T09:58:37;5.80;1.00
2611;DHT22;5612;51.134;17.058;2023-02-01T10:01:15;5.70;1.00
2611;DHT22;5612;51.134;17.058;2023-02-01T10:03:48;5.70;1.00
2611;DHT22;5612;51.134;17.058;2023-02-01T10:06:33;5.80;1.00
2611;DHT22;5612;51.134;17.058;2023-02-01T10:12:38;5.80;1.00
2611;DHT22;5612;51.134;17.058;2023-02-01T10:15:19;5.80;1.00
2611;DHT22;5612;51.134;17.058;2023-02-01T10:18:05;5.70;1.00
2611;DHT22;5612;51.134;17.058;2023-02-01T10:20:48;5.70;1.00
2611;DHT22;5612;51.134;17.058;2023-02-01T10:26:19;5.60;1.00
2611;DHT22;5612;51.134;17.058;2023-02-01T10:28:51;5.60;1.00
2611;DHT22;5612;51.134;17.058;2023-02-01T10:31:22;5.80;1.00
2611;DHT22;5612;51.134;17.058;2023-02-01T10:33:57;5.80;1.00
2611;DHT22;5612;51.134;17.058;2023-02-01T10:36:30;5.60;1.00
2611;DHT22;5612;51.134;17.058;2023-02-01T10:39:01;5.60;1.00
2611;DHT22;5612;51.134;17.058;2023-02-01T10:41:33;5.50;1.00
2611;DHT22;5612;51.134;17.058;2023-02-01T10:44:04;5.60;1.00
2611;DHT22;5612;51.134;17.058;2023-02-01T10:46:34;5.50;1.00
2611;DHT22;5612;51.134;17.058;2023-02-01T10:49:04;5.40;1.00
2611;DHT22;5612;51.134;17.058;2023-02-01T10:51:42;5.50;1.00
2611;DHT22;5612;51.134;17.058;2023-02-01T10:54:17;5.60;1.00
2611;DHT22;5612;51.134;17.058;2023-02-01T10:56:48;5.60;1.00
2611;DHT22;5612;51.134;17.058;2023-02-01T10:59:19;5.60;1.00
2611;DHT22;5612;51.134;17.058;2023-02-01T11:01:49;5.40;1.00
2611;DHT22;5612;51.134;17.058;2023-02-01T11:04:19;5.40;1.00
2611;DHT22;5612;51.134;17.058;2023-02-01T11:06:53;5.40;1.00
2611;DHT22;5612;51.134;17.058;2023-02-01T11:09:38;5.30;1.00
2611;DHT22;5612;51.134;17.058;2023-02-01T11:12:26;5.30;23.50
2611;DHT22;5612;51.134;17.058;2023-02-01T11:15:13;5.20;33.70
2611;DHT22;5612;51.134;17.058;2023-02-01T11:17:44;5.20;33.10
2611;DHT22;5612;51.134;17.058;2023-02-01T11:20:17;5.20;21.60
2611;DHT22;5612;51.134;17.058;2023-02-01T11:22:52;5.20;21.80
2611;DHT22;5612;51.134;17.058;2023-02-01T11:25:21;5.10;47.20
2611;DHT22;5612;51.134;17.058;2023-02-01T11:27:54;5.00;92.40
2611;DHT22;5612;51.134;17.058;2023-02-01T11:30:32;5.00;92.10
2611;DHT22;5612;51.134;17.058;2023-02-01T11:33:03;4.90;99.90
2611;DHT22;5612;51.134;17.058;2023-02-01T11:35:37;4.90;99.90
2611;DHT22;5612;51.134;17.058;2023-02-01T11:38:20;4.90;87.00
2611;DHT22;5612;51.134;17.058;2023-02-01T11:40:49;4.90;86.50
2611;DHT22;5612;51.134;17.058;2023-02-01T11:43:23;4.90;97.90
2611;DHT22;5612;51.134;17.058;2023-02-01T11:45:58;5.10;71.90
2611;DHT22;5612;51.134;17.058;2023-02-01T11:48:29;5.00;76.30
2611;DHT22;5612;51.134;17.058;2023-02-01T11:51:10;5.00;68.40
2611;DHT22;5612;51.134;17.058;2023-02-01T11:54:07;5.00;90.00
2611;DHT22;5612;51.134;17.058;2023-02-01T11:56:47;5.00;80.70
2611;DHT22;5612;51.134;17.058;2023-02-01T11:59:35;4.90;99.90
2611;DHT22;5612;51.134;17.058;2023-02-01T12:02:35;4.70;99.90
2611;DHT22;5612;51.134;17.058;2023-02-01T12:05:27;4.60;99.90
2611;DHT22;5612;51.134;17.058;2023-02-01T12:08:16;4.50;99.90
2611;DHT22;5612;51.134;17.058;2023-02-01T12:11:02;4.50;99.90
2611;DHT22;5612;51.134;17.058;2023-02-01T12:13:44;4.40;99.90
2611;DHT22;5612;51.134;17.058;2023-02-01T12:16:23;4.50;99.90
2611;DHT22;5612;51.134;17.058;2023-02-01T12:19:10;4.50;99.90
2611;DHT22;5612;51.134;17.058;2023-02-01T12:24:52;4.50;99.90
2611;DHT22;5612;51.134;17.058;2023-02-01T12:27:46;4.60;99.90
2611;DHT22;5612;51.134;17.058;2023-02-01T12:33:19;4.70;99.90
2611;DHT22;5612;51.134;17.058;2023-02-01T12:36:06;4.70;99.90
2611;DHT22;5612;51.134;17.058;2023-02-01T12:38:46;4.80;99.90
2611;DHT22;5612;51.134;17.058;2023-02-01T12:41:38;4.80;99.90
2611;DHT22;5612;51.134;17.058;2023-02-01T12:44:24;4.80;99.90
2611;DHT22;5612;51.134;17.058;2023-02-01T12:46:57;4.80;99.90
2611;DHT22;5612;51.134;17.058;2023-02-01T12:49:35;4.70;99.90
2611;DHT22;5612;51.134;17.058;2023-02-01T12:52:10;4.70;99.90
2611;DHT22;5612;51.134;17.058;2023-02-01T12:54:45;4.60;99.90
2611;DHT22;5612;51.134;17.058;2023-02-01T12:57:23;4.70;99.90
2611;DHT22;5612;51.134;17.058;2023-02-01T13:00:02;4.70;99.90
2611;DHT22;5612;51.134;17.058;2023-02-01T13:02:39;4.80;99.90
2611;DHT22;5612;51.134;17.058;2023-02-01T13:05:17;4.80;99.90
2611;DHT22;5612;51.134;17.058;2023-02-01T13:07:50;4.70;99.90
2611;DHT22;5612;51.134;17.058;2023-02-01T13:10:28;4.80;99.90
2611;DHT22;5612;51.134;17.058;2023-02-01T13:13:02;4.80;99.90
2611;DHT22;5612;51.134;17.058;2023-02-01T13:15:40;4.80;99.90
2611;DHT22;5612;51.134;17.058;2023-02-01T13:18:14;4.80;99.90
2611;DHT22;5612;51.134;17.058;2023-02-01T13:20:49;4.80;99.90
2611;DHT22;5612;51.134;17.058;2023-02-01T13:23:31;4.90;99.90
2611;DHT22;5612;51.134;17.058;2023-02-01T13:26:03;4.80;99.90
2611;DHT22;5612;51.134;17.058;2023-02-01T13:28:45;4.90;99.90
2611;DHT22;5612;51.134;17.058;2023-02-01T13:31:38;4.90;99.90
2611;DHT22;5612;51.134;17.058;2023-02-01T13:34:51;5.00;99.90
2611;DHT22;5612;51.134;17.058;2023-02-01T13:37:35;5.00;99.90
2611;DHT22;5612;51.134;17.058;2023-02-01T13:40:19;5.10;99.90
2611;DHT22;5612;51.134;17.058;2023-02-01T13:42:51;5.30;99.90
2611;DHT22;5612;51.134;17.058;2023-02-01T13:45:23;5.30;99.90
2611;DHT22;5612;51.134;17.058;2023-02-01T13:47:57;5.20;99.90
2611;DHT22;5612;51.134;17.058;2023-02-01T13:50:28;5.10;99.90
2611;DHT22;5612;51.134;17.058;2023-02-01T13:53:00;5.10;99.90
2611;DHT22;5612;51.134;17.058;2023-02-01T13:55:32;5.10;99.90
2611;DHT22;5612;51.134;17.058;2023-02-01T13:58:15;5.20;99.90
2611;DHT22;5612;51.134;17.058;2023-02-01T14:00:47;5.10;99.90
2611;DHT22;5612;51.134;17.058;2023-02-01T14:03:21;5.10;99.90
2611;DHT22;5612;51.134;17.058;2023-02-01T14:11:34;5.90;60.00
2611;DHT22;5612;51.134;17.058;2023-02-01T14:17:35;5.60;98.00
2611;DHT22;5612;51.134;17.058;2023-02-01T14:23:29;5.00;99.90
2611;DHT22;5612;51.134;17.058;2023-02-01T14:26:16;4.90;99.90
2611;DHT22;5612;51.134;17.058;2023-02-01T14:28:50;4.90;99.90
2611;DHT22;5612;51.134;17.058;2023-02-01T14:34:37;4.80;99.90
2611;DHT22;5612;51.134;17.058;2023-02-01T14:37:12;4.80;99.90
2611;DHT22;5612;51.134;17.058;2023-02-01T14:39:59;4.80;99.90
2611;DHT22;5612;51.134;17.058;2023-02-01T14:42:37;5.00;99.90
2611;DHT22;5612;51.134;17.058;2023-02-01T14:45:47;5.30;99.90
2611;DHT22;5612;51.134;17.058;2023-02-01T14:48:41;5.50;99.90
2611;DHT22;5612;51.134;17.058;2023-02-01T14:51:14;5.30;99.90
2611;DHT22;5612;51.134;17.058;2023-02-01T14:53:45;5.20;99.90
2611;DHT22;5612;51.134;17.058;2023-02-01T14:56:17;5.10;99.90
2611;DHT22;5612;51.134;17.058;2023-02-01T14:58:52;5.00;99.90
2611;DHT22;5612;51.134;17.058;2023-02-01T15:01:25;4.90;99.90
2611;DHT22;5612;51.134;17.058;2023-02-01T15:04:02;5.00;99.90
2611;DHT22;5612;51.134;17.058;2023-02-01T15:06:36;4.90;99.90
2611;DHT22;5612;51.134;17.058;2023-02-01T15:09:09;5.00;99.90
2611;DHT22;5612;51.134;17.058;2023-02-01T15:12:03;5.00;99.90
2611;DHT22;5612;51.134;17.058;2023-02-01T15:14:34;4.90;99.90
2611;DHT22;5612;51.134;17.058;2023-02-01T15:17:18;4.90;99.90
2611;DHT22;5612;51.134;17.058;2023-02-01T15:19:54;4.80;99.90
2611;DHT22;5612;51.134;17.058;2023-02-01T15:22:23;4.70;99.90
2611;DHT22;5612;51.134;17.058;2023-02-01T15:24:54;4.70;97.60
2611;DHT22;5612;51.134;17.058;2023-02-01T15:27:26;4.60;97.90
2611;DHT22;5612;51.134;17.058;2023-02-01T15:30:05;4.60;99.90
2611;DHT22;5612;51.134;17.058;2023-02-01T15:32:37;4.60;99.90
2611;DHT22;5612;51.134;17.058;2023-02-01T15:38:29;4.60;99.90
2611;DHT22;5612;51.134;17.058;2023-02-01T15:41:01;4.70;99.90
2611;DHT22;5612;51.134;17.058;2023-02-01T15:43:35;4.70;99.90
2611;DHT22;5612;51.134;17.058;2023-02-01T15:46:09;4.70;96.10
2611;DHT22;5612;51.134;17.058;2023-02-01T15:48:43;4.70;99.90
2611;DHT22;5612;51.134;17.058;2023-02-01T15:51:17;4.60;99.90
2611;DHT22;5612;51.134;17.058;2023-02-01T15:53:50;4.60;99.90
2611;DHT22;5612;51.134;17.058;2023-02-01T15:56:24;4.50;99.90
2611;DHT22;5612;51.134;17.058;2023-02-01T15:58:58;4.50;99.90
2611;DHT22;5612;51.134;17.058;2023-02-01T16:01:27;4.50;99.90
2611;DHT22;5612;51.134;17.058;2023-02-01T16:04:14;4.50;99.90
2611;DHT22;5612;51.134;17.058;2023-02-01T16:06:50;4.40;99.90
2611;DHT22;5612;51.134;17.058;2023-02-01T16:09:20;4.40;99.90
2611;DHT22;5612;51.134;17.058;2023-02-01T16:11:55;4.40;98.60
2611;DHT22;5612;51.134;17.058;2023-02-01T16:14:27;4.30;99.90
2611;DHT22;5612;51.134;17.058;2023-02-01T16:16:57;4.20;99.90
2611;DHT22;5612;51.134;17.058;2023-02-01T16:19:26;4.20;99.90
2611;DHT22;5612;51.134;17.058;2023-02-01T16:21:57;4.10;99.90
2611;DHT22;5612;51.134;17.058;2023-02-01T16:24:27;4.10;99.90
2611;DHT22;5612;51.134;17.058;2023-02-01T16:26:55;4.10;99.90
2611;DHT22;5612;51.134;17.058;2023-02-01T16:29:26;4.10;99.90
2611;DHT22;5612;51.134;17.058;2023-02-01T16:31:56;4.10;99.90
2611;DHT22;5612;51.134;17.058;2023-02-01T16:34:25;4.10;99.90
2611;DHT22;5612;51.134;17.058;2023-02-01T16:36:56;4.20;99.90
2611;DHT22;5612;51.134;17.058;2023-02-01T16:39:26;4.10;99.90
2611;DHT22;5612;51.134;17.058;2023-02-01T16:41:56;4.10;99.90
2611;DHT22;5612;51.134;17.058;2023-02-01T16:44:29;4.10;99.90
2611;DHT22;5612;51.134;17.058;2023-02-01T16:46:59;4.10;99.90
2611;DHT22;5612;51.134;17.058;2023-02-01T16:49:29;4.10;99.90
2611;DHT22;5612;51.134;17.058;2023-02-01T16:51:58;4.20;99.90
2611;DHT22;5612;51.134;17.058;2023-02-01T16:54:28;4.20;99.90
2611;DHT22;5612;51.134;17.058;2023-02-01T16:56:57;4.10;99.90
2611;DHT22;5612;51.134;17.058;2023-02-01T16:59:29;4.10;99.90
2611;DHT22;5612;51.134;17.058;2023-02-01T17:01:58;4.10;99.90
2611;DHT22;5612;51.134;17.058;2023-02-01T17:04:28;4.00;99.90
2611;DHT22;5612;51.134;17.058;2023-02-01T17:07:00;4.00;99.90
2611;DHT22;5612;51.134;17.058;2023-02-01T17:09:39;4.00;99.90
2611;DHT22;5612;51.134;17.058;2023-02-01T17:12:16;4.00;99.90
2611;DHT22;5612;51.134;17.058;2023-02-01T17:14:49;4.00;99.90
2611;DHT22;5612;51.134;17.058;2023-02-01T17:17:21;4.00;99.90
2611;DHT22;5612;51.134;17.058;2023-02-01T17:20:06;3.90;99.90
2611;DHT22;5612;51.134;17.058;2023-02-01T17:22:36;3.90;99.90
2611;DHT22;5612;51.134;17.058;2023-02-01T17:25:14;3.90;99.90
2611;DHT22;5612;51.134;17.058;2023-02-01T17:27:46;3.80;99.90
2611;DHT22;5612;51.134;17.058;2023-02-01T17:30:19;3.80;99.90